createdAt,value
2022-10-08T00:01:22.946Z,54.28
2022-10-08T00:03:55.095Z,54.37
2022-10-08T00:06:29.279Z,54.50
2022-10-08T00:09:04.936Z,54.34
2022-10-08T00:11:40.191Z,54.45
2022-10-08T00:14:08.594Z,54.54
2022-10-08T00:16:41.033Z,54.46
2022-10-08T00:19:14.119Z,54.54
2022-10-08T00:21:44.280Z,54.43
2022-10-08T00:24:17.297Z,54.59
2022-10-08T00:26:45.580Z,54.49
2022-10-08T00:29:17.577Z,54.53
2022-10-08T00:31:47.074Z,54.47
2022-10-08T00:34:19.335Z,54.50
2022-10-08T00:36:50.283Z,54.70
2022-10-08T00:39:21.325Z,54.52
2022-10-08T00:41:53.128Z,54.47
2022-10-08T00:44:48.203Z,54.30
2022-10-08T00:47:34.499Z,54.14
2022-10-08T00:50:07.290Z,54.56
2022-10-08T00:52:45.669Z,54.82
2022-10-08T00:55:16.616Z,54.84
2022-10-08T00:57:44.533Z,54.53
2022-10-08T01:00:18.709Z,54.51
2022-10-08T01:02:46.914Z,54.60
2022-10-08T01:05:19.483Z,54.89
2022-10-08T01:07:59.847Z,55.09
2022-10-08T01:11:00.839Z,54.90
2022-10-08T01:13:55.168Z,54.76
2022-10-08T01:16:41.870Z,55.02
2022-10-08T01:19:30.783Z,54.86
2022-10-08T01:22:44.879Z,54.96
2022-10-08T01:25:30.230Z,54.92
2022-10-08T01:28:03.573Z,55.06
2022-10-08T01:30:35.370Z,54.92
2022-10-08T01:33:21.197Z,55.08
2022-10-08T01:35:56.087Z,55.10
2022-10-08T01:38:29.331Z,55.05
2022-10-08T01:40:59.552Z,55.10
2022-10-08T01:43:34.134Z,55.51
2022-10-08T01:46:11.516Z,55.12
2022-10-08T01:48:42.650Z,55.59
2022-10-08T01:51:20.217Z,55.69
2022-10-08T01:53:50.306Z,55.81
2022-10-08T01:56:25.532Z,55.79
2022-10-08T01:59:11.875Z,55.94
2022-10-08T02:02:03.752Z,55.53
2022-10-08T02:04:32.116Z,55.31
2022-10-08T02:07:15.354Z,55.30
2022-10-08T02:09:50.861Z,55.47
2022-10-08T02:12:20.340Z,55.58
2022-10-08T02:14:53.566Z,55.62
2022-10-08T02:17:27.113Z,55.48
2022-10-08T02:20:05.715Z,55.29
2022-10-08T02:22:45.789Z,55.03
2022-10-08T02:25:49.379Z,55.26
2022-10-08T02:28:30.632Z,55.08
2022-10-08T02:31:25.815Z,55.24
2022-10-08T02:34:21.416Z,55.40
2022-10-08T02:37:00.392Z,55.72
2022-10-08T02:39:32.825Z,55.68
2022-10-08T02:42:12.634Z,55.37
2022-10-08T02:45:00.240Z,55.28
2022-10-08T02:47:34.007Z,55.30
2022-10-08T02:50:07.547Z,55.44
2022-10-08T02:52:45.676Z,55.75
2022-10-08T02:55:41.607Z,55.59
2022-10-08T02:58:12.004Z,55.49
2022-10-08T03:00:58.656Z,55.43
2022-10-08T03:03:34.898Z,55.42
2022-10-08T03:06:11.017Z,55.41
2022-10-08T03:08:46.435Z,55.25
2022-10-08T03:11:14.793Z,55.40
2022-10-08T03:13:46.792Z,55.62
2022-10-08T03:16:21.449Z,55.54
2022-10-08T03:18:50.591Z,55.40
2022-10-08T03:21:18.536Z,55.66
2022-10-08T03:23:45.867Z,55.57
2022-10-08T03:26:16.391Z,55.49
2022-10-08T03:28:43.772Z,55.23
2022-10-08T03:31:11.156Z,55.40
2022-10-08T03:33:38.427Z,55.37
2022-10-08T03:36:05.906Z,55.22
2022-10-08T03:38:35.095Z,55.45
2022-10-08T03:41:02.275Z,55.32
2022-10-08T03:43:34.265Z,55.85
2022-10-08T03:46:02.530Z,55.85
2022-10-08T03:48:30.666Z,55.80
2022-10-08T03:51:05.277Z,55.89
2022-10-08T03:53:36.533Z,55.76
2022-10-08T03:56:11.465Z,55.72
2022-10-08T03:58:38.711Z,55.64
2022-10-08T04:01:11.990Z,55.54
2022-10-08T04:03:40.796Z,55.43
2022-10-08T04:06:08.558Z,55.44
2022-10-08T04:08:36.083Z,55.74
2022-10-08T04:11:12.731Z,56.12
2022-10-08T04:13:40.673Z,55.92
2022-10-08T04:16:12.980Z,55.61
2022-10-08T04:18:40.736Z,55.68
2022-10-08T04:21:12.531Z,55.53
2022-10-08T04:23:41.796Z,55.89
2022-10-08T04:26:12.766Z,56.50
2022-10-08T04:28:43.498Z,56.28
2022-10-08T04:31:15.747Z,56.14
2022-10-08T04:33:43.409Z,56.11
2022-10-08T04:36:14.649Z,56.04
2022-10-08T04:38:46.524Z,56.19
2022-10-08T04:41:17.980Z,56.35
2022-10-08T04:43:48.821Z,56.41
2022-10-08T04:46:19.820Z,56.22
2022-10-08T04:48:53.293Z,56.14
2022-10-08T04:51:22.532Z,55.98
2022-10-08T04:53:50.779Z,56.45
2022-10-08T04:56:23.547Z,56.59
2022-10-08T04:58:51.722Z,56.92
2022-10-08T05:01:21.052Z,56.11
2022-10-08T05:03:51.923Z,56.35
2022-10-08T05:06:23.744Z,56.62
2022-10-08T05:08:51.704Z,56.59
2022-10-08T05:11:19.873Z,56.87
2022-10-08T05:13:55.136Z,56.94
2022-10-08T05:16:23.649Z,57.04
2022-10-08T05:18:51.009Z,56.85
2022-10-08T05:21:22.743Z,57.10
2022-10-08T05:23:58.510Z,56.47
2022-10-08T05:29:19.605Z,56.26
2022-10-08T05:31:46.811Z,56.37
2022-10-08T05:34:15.418Z,56.53
2022-10-08T05:36:43.105Z,56.76
2022-10-08T05:39:11.444Z,56.73
2022-10-08T05:41:38.643Z,57.00
2022-10-08T05:44:08.269Z,57.12
2022-10-08T05:46:37.279Z,57.21
2022-10-08T05:49:08.143Z,57.07
2022-10-08T05:51:35.537Z,57.28
2022-10-08T05:54:03.063Z,57.37
2022-10-08T05:56:30.214Z,57.22
2022-10-08T05:58:57.396Z,57.23
2022-10-08T06:01:28.859Z,57.13
2022-10-08T06:04:03.104Z,57.20
2022-10-08T06:06:37.828Z,57.11
2022-10-08T06:09:07.812Z,57.21
2022-10-08T06:11:37.650Z,57.33
2022-10-08T06:14:07.422Z,57.42
2022-10-08T06:16:35.695Z,57.48
2022-10-08T06:19:04.557Z,57.34
2022-10-08T06:21:33.283Z,57.72
2022-10-08T06:24:04.919Z,57.61
2022-10-08T06:26:39.100Z,57.86
2022-10-08T06:29:15.616Z,57.76
2022-10-08T06:31:44.273Z,57.76
2022-10-08T06:34:12.036Z,57.97
2022-10-08T06:36:40.439Z,58.00
2022-10-08T06:39:13.491Z,58.23
2022-10-08T06:41:41.354Z,58.65
2022-10-08T06:44:13.702Z,58.68
2022-10-08T06:46:43.485Z,58.66
2022-10-08T06:49:12.405Z,58.80
2022-10-08T06:51:40.027Z,58.78
2022-10-08T06:54:08.503Z,58.74
2022-10-08T06:56:38.613Z,58.71
2022-10-08T06:59:08.887Z,58.73
2022-10-08T07:01:36.552Z,58.67
2022-10-08T07:04:05.744Z,58.86
2022-10-08T07:06:33.062Z,58.70
2022-10-08T07:09:01.684Z,58.66
2022-10-08T07:11:30.251Z,59.02
2022-10-08T07:13:58.661Z,58.78
2022-10-08T07:16:28.538Z,58.50
2022-10-08T07:18:57.381Z,58.99
2022-10-08T07:21:24.933Z,59.28
2022-10-08T07:23:52.083Z,59.02
2022-10-08T07:26:23.313Z,58.87
2022-10-08T07:29:02.899Z,58.70
2022-10-08T07:31:35.528Z,58.77
2022-10-08T07:34:07.495Z,58.68
2022-10-08T07:36:35.652Z,59.09
2022-10-08T07:39:08.105Z,59.22
2022-10-08T07:41:35.648Z,59.51
2022-10-08T07:44:04.535Z,59.31
2022-10-08T07:46:35.788Z,59.45
2022-10-08T07:49:04.903Z,59.00
2022-10-08T07:51:34.984Z,58.42
2022-10-08T07:54:05.838Z,58.42
2022-10-08T07:56:35.148Z,58.25
2022-10-08T07:59:04.556Z,57.76
2022-10-08T08:01:33.494Z,57.32
2022-10-08T08:04:07.237Z,57.03
2022-10-08T08:06:42.230Z,57.04
2022-10-08T08:09:11.127Z,56.98
2022-10-08T08:11:38.347Z,56.73
2022-10-08T08:14:05.562Z,56.62
2022-10-08T08:16:32.936Z,56.07
2022-10-08T08:19:01.858Z,56.42
2022-10-08T08:21:37.268Z,55.90
2022-10-08T08:24:12.508Z,55.29
2022-10-08T08:26:42.187Z,54.60
2022-10-08T08:29:18.453Z,55.14
2022-10-08T08:31:49.090Z,54.82
2022-10-08T08:34:22.872Z,54.12
2022-10-08T08:36:52.588Z,54.26
2022-10-08T08:39:26.298Z,54.15
2022-10-08T08:42:11.889Z,53.37
2022-10-08T08:44:46.079Z,53.11
2022-10-08T08:47:31.241Z,52.50
2022-10-08T08:50:19.591Z,52.09
2022-10-08T08:52:47.046Z,51.79
2022-10-08T08:55:18.060Z,51.97
2022-10-08T08:57:58.398Z,51.98
2022-10-08T09:00:35.838Z,51.77
2022-10-08T09:03:06.558Z,51.50
2022-10-08T09:05:41.600Z,51.37
2022-10-08T09:08:34.209Z,51.01
2022-10-08T09:11:04.650Z,51.00
2022-10-08T09:13:58.657Z,50.19
2022-10-08T09:16:28.070Z,50.30
2022-10-08T09:18:55.797Z,49.87
2022-10-08T09:21:25.539Z,49.81
2022-10-08T09:23:52.666Z,49.59
2022-10-08T09:26:35.071Z,49.42
2022-10-08T09:29:05.195Z,48.77
2022-10-08T09:32:01.927Z,48.85
2022-10-08T09:34:29.111Z,48.78
2022-10-08T09:37:14.440Z,47.88
2022-10-08T09:40:18.815Z,48.61
2022-10-08T09:43:10.081Z,47.61
2022-10-08T09:45:49.282Z,46.59
2022-10-08T09:48:23.027Z,46.54
2022-10-08T09:51:25.532Z,46.75
2022-10-08T09:53:59.920Z,46.34
2022-10-08T09:56:31.383Z,45.67
2022-10-08T09:59:06.629Z,45.53
2022-10-08T10:01:34.142Z,44.74
2022-10-08T10:04:03.597Z,44.05
2022-10-08T10:06:34.400Z,44.23
2022-10-08T10:09:43.096Z,44.11
2022-10-08T10:12:31.390Z,44.29
2022-10-08T10:15:00.822Z,44.30
2022-10-08T10:17:59.301Z,43.49
2022-10-08T10:20:37.513Z,42.75
2022-10-08T10:23:18.480Z,41.76
2022-10-08T10:26:33.811Z,42.26
2022-10-08T10:30:01.028Z,40.85
2022-10-08T10:32:47.066Z,41.64
2022-10-08T10:35:31.957Z,43.09
2022-10-08T10:38:11.402Z,42.78
2022-10-08T10:41:16.155Z,42.26
2022-10-08T10:44:00.418Z,42.27
2022-10-08T10:46:42.037Z,40.92
2022-10-08T10:49:30.325Z,40.11
2022-10-08T10:52:33.164Z,38.32
2022-10-08T10:55:38.781Z,33.86
2022-10-08T10:58:28.116Z,30.37
2022-10-08T11:01:52.999Z,26.78
2022-10-08T11:04:44.228Z,24.61
2022-10-08T11:07:57.960Z,22.79
2022-10-08T11:10:45.862Z,22.76
2022-10-08T11:13:45.093Z,20.64
2022-10-08T11:16:31.808Z,18.84
2022-10-08T11:19:04.510Z,17.93
2022-10-08T11:21:51.804Z,15.95
2022-10-08T11:24:31.970Z,17.96
2022-10-08T11:27:11.184Z,17.93
2022-10-08T11:30:08.395Z,18.54
2022-10-08T11:32:35.905Z,18.17
2022-10-08T11:35:12.270Z,18.64
2022-10-08T11:38:09.515Z,17.96
2022-10-08T11:41:09.924Z,18.55
2022-10-08T11:44:02.736Z,18.05
2022-10-08T11:46:34.694Z,18.03
2022-10-08T11:49:22.321Z,19.04
2022-10-08T11:51:54.174Z,18.00
2022-10-08T11:54:34.104Z,20.06
2022-10-08T11:57:22.933Z,19.87
2022-10-08T11:59:52.900Z,19.44
2022-10-08T12:02:36.140Z,18.90
2022-10-08T12:06:15.250Z,19.99
2022-10-08T12:09:00.453Z,21.45
2022-10-08T12:11:33.495Z,21.25
2022-10-08T12:14:12.963Z,21.48
2022-10-08T12:16:49.287Z,21.84
2022-10-08T12:19:35.495Z,24.14
2022-10-08T12:22:14.655Z,23.51
2022-10-08T12:24:45.929Z,22.96
2022-10-08T12:27:30.927Z,25.24
2022-10-08T12:30:15.449Z,23.97
2022-10-08T12:32:42.607Z,23.44
2022-10-08T12:35:41.251Z,23.82
2022-10-08T12:39:03.007Z,23.95
2022-10-08T12:41:42.192Z,23.03
2022-10-08T12:44:32.744Z,23.03
2022-10-08T12:47:50.397Z,23.86
2022-10-08T12:50:43.427Z,24.08
2022-10-08T12:53:17.583Z,24.34
2022-10-08T12:55:53.998Z,23.85
2022-10-08T12:58:31.774Z,24.88
2022-10-08T13:01:03.341Z,24.82
2022-10-08T13:03:31.030Z,24.08
2022-10-08T13:06:13.771Z,25.10
2022-10-08T13:08:41.054Z,25.52
2022-10-08T13:11:16.620Z,26.37
2022-10-08T13:13:51.289Z,25.12
2022-10-08T13:16:25.884Z,25.90
2022-10-08T13:18:58.681Z,26.63
2022-10-08T13:21:33.844Z,26.70
2022-10-08T13:24:23.949Z,26.68
2022-10-08T13:26:56.747Z,25.72
2022-10-08T13:29:33.454Z,24.90
2022-10-08T13:32:31.716Z,26.16
2022-10-08T13:35:01.605Z,25.66
2022-10-08T13:37:38.555Z,27.41
2022-10-08T13:40:11.665Z,26.35
2022-10-08T13:42:55.526Z,27.71
2022-10-08T13:45:26.635Z,26.35
2022-10-08T13:47:54.320Z,26.17
2022-10-08T13:50:22.837Z,27.01
2022-10-08T13:52:54.470Z,26.02
2022-10-08T13:55:27.311Z,26.38
2022-10-08T13:57:56.748Z,27.08
2022-10-08T14:00:24.906Z,27.41
2022-10-08T14:02:52.714Z,27.71
2022-10-08T14:05:22.195Z,27.45
2022-10-08T14:07:57.053Z,27.60
2022-10-08T14:10:24.516Z,26.68
2022-10-08T14:12:51.668Z,27.14
2022-10-08T14:15:19.468Z,27.63
2022-10-08T14:17:46.831Z,27.14
2022-10-08T14:20:14.214Z,27.61
2022-10-08T14:22:41.702Z,28.02
2022-10-08T14:25:17.849Z,27.67
2022-10-08T14:27:45.972Z,27.85
2022-10-08T14:30:14.432Z,28.04
2022-10-08T14:32:42.776Z,27.72
2022-10-08T14:35:12.201Z,27.85
2022-10-08T14:37:39.789Z,28.30
2022-10-08T14:40:09.281Z,27.97
2022-10-08T14:42:36.644Z,28.80
2022-10-08T14:45:04.361Z,28.85
2022-10-08T14:47:31.714Z,28.88
2022-10-08T14:49:58.898Z,28.72
2022-10-08T14:52:26.144Z,29.03
2022-10-08T14:54:53.329Z,28.42
2022-10-08T14:57:20.521Z,28.96
2022-10-08T14:59:47.731Z,29.40
2022-10-08T15:02:15.079Z,30.07
2022-10-08T15:04:42.304Z,30.78
2022-10-08T15:07:09.476Z,31.11
2022-10-08T15:09:36.571Z,31.95
2022-10-08T15:12:03.962Z,32.50
2022-10-08T15:14:35.649Z,33.13
2022-10-08T15:17:05.212Z,33.76
2022-10-08T15:19:32.354Z,34.08
2022-10-08T15:21:59.636Z,34.15
2022-10-08T15:24:26.837Z,34.77
2022-10-08T15:26:54.926Z,34.96
2022-10-08T15:29:22.222Z,35.41
2022-10-08T15:31:52.620Z,35.82
2022-10-08T15:34:21.074Z,35.97
2022-10-08T15:36:48.393Z,36.31
2022-10-08T15:39:18.847Z,36.88
2022-10-08T15:41:49.547Z,37.11
2022-10-08T15:44:29.413Z,37.31
2022-10-08T15:47:00.768Z,38.08
2022-10-08T15:49:39.951Z,38.55
2022-10-08T15:52:11.751Z,39.04
2022-10-08T15:54:40.518Z,39.38
2022-10-08T15:57:11.837Z,39.47
2022-10-08T15:59:39.518Z,39.90
2022-10-08T16:02:11.709Z,39.99
2022-10-08T16:04:41.308Z,40.48
2022-10-08T16:07:09.211Z,40.74
2022-10-08T16:09:36.472Z,40.94
2022-10-08T16:12:03.906Z,41.20
2022-10-08T16:14:31.063Z,41.59
2022-10-08T16:16:58.447Z,41.47
2022-10-08T16:19:26.973Z,41.76
2022-10-08T16:21:57.345Z,41.92
2022-10-08T16:24:25.108Z,42.01
2022-10-08T16:26:52.654Z,42.39
2022-10-08T16:29:20.049Z,42.51
2022-10-08T16:31:48.115Z,42.82
2022-10-08T16:34:20.240Z,42.53
2022-10-08T16:36:47.772Z,43.42
2022-10-08T16:39:18.362Z,43.86
2022-10-08T16:41:46.511Z,44.16
2022-10-08T16:44:18.977Z,44.06
2022-10-08T16:46:51.051Z,44.45
2022-10-08T16:49:26.505Z,44.57
2022-10-08T16:52:05.399Z,44.75
2022-10-08T16:54:32.845Z,44.98
2022-10-08T16:57:00.468Z,44.99
2022-10-08T16:59:30.318Z,45.27
2022-10-08T17:01:59.636Z,45.37
2022-10-08T17:04:29.857Z,45.89
2022-10-08T17:06:57.321Z,45.94
2022-10-08T17:09:24.601Z,46.10
2022-10-08T17:11:51.817Z,46.03
2022-10-08T17:14:19.453Z,46.16
2022-10-08T17:16:49.207Z,46.37
2022-10-08T17:19:16.598Z,46.64
2022-10-08T17:21:44.319Z,46.81
2022-10-08T17:24:12.791Z,46.68
2022-10-08T17:26:40.645Z,46.92
2022-10-08T17:29:11.186Z,47.05
2022-10-08T17:31:38.992Z,47.32
2022-10-08T17:34:06.697Z,47.31
2022-10-08T17:36:37.448Z,47.55
2022-10-08T17:39:08.243Z,47.48
2022-10-08T17:41:39.375Z,47.60
2022-10-08T17:44:09.191Z,47.93
2022-10-08T17:46:43.673Z,48.01
2022-10-08T17:49:11.430Z,48.38
2022-10-08T17:51:39.088Z,48.13
2022-10-08T17:54:15.295Z,48.31
2022-10-08T17:56:43.161Z,48.47
2022-10-08T17:59:15.495Z,48.39
2022-10-08T18:01:45.417Z,48.72
2022-10-08T18:04:15.726Z,48.66
2022-10-08T18:06:45.638Z,49.00
2022-10-08T18:09:18.293Z,49.20
2022-10-08T18:11:50.193Z,49.47
2022-10-08T18:14:17.787Z,49.68
2022-10-08T18:16:48.205Z,49.60
2022-10-08T18:19:17.246Z,49.79
2022-10-08T18:21:44.823Z,50.13
2022-10-08T18:24:12.073Z,50.35
2022-10-08T18:26:39.568Z,50.57
2022-10-08T18:29:10.829Z,50.74
2022-10-08T18:31:41.372Z,50.62
2022-10-08T18:34:13.663Z,50.73
2022-10-08T18:36:41.478Z,50.75
2022-10-08T18:39:13.817Z,50.65
2022-10-08T18:41:50.615Z,50.65
2022-10-08T18:44:22.110Z,50.74
2022-10-08T18:46:49.881Z,50.64
2022-10-08T18:49:20.481Z,50.60
2022-10-08T18:51:50.087Z,50.79
2022-10-08T18:54:17.496Z,50.78
2022-10-08T18:56:44.701Z,50.53
2022-10-08T18:59:15.517Z,50.43
2022-10-08T19:01:47.356Z,50.53
2022-10-08T19:04:18.857Z,50.39
2022-10-08T19:06:49.117Z,50.81
2022-10-08T19:09:17.121Z,50.58
2022-10-08T19:11:51.391Z,50.46
2022-10-08T19:14:22.233Z,50.65
2022-10-08T19:16:50.209Z,50.70
2022-10-08T19:19:26.941Z,50.87
2022-10-08T19:21:55.473Z,50.97
2022-10-08T19:24:26.117Z,51.04
2022-10-08T19:26:54.987Z,51.08
2022-10-08T19:29:25.873Z,51.10
2022-10-08T19:31:53.005Z,51.05
2022-10-08T19:34:24.579Z,51.02
2022-10-08T19:36:52.423Z,50.86
2022-10-08T19:39:27.204Z,51.10
2022-10-08T19:41:54.597Z,50.90
2022-10-08T19:44:22.970Z,50.88
2022-10-08T19:46:50.677Z,51.04
2022-10-08T19:49:18.593Z,51.26
2022-10-08T19:51:46.325Z,51.03
2022-10-08T19:54:14.752Z,51.29
2022-10-08T19:56:42.400Z,51.33
2022-10-08T19:59:13.787Z,51.14
2022-10-08T20:01:42.580Z,51.44
2022-10-08T20:04:11.422Z,51.40
2022-10-08T20:06:41.686Z,51.57
2022-10-08T20:09:12.236Z,51.61
2022-10-08T20:11:41.435Z,51.68
2022-10-08T20:14:09.804Z,51.70
2022-10-08T20:16:42.395Z,51.68
2022-10-08T20:19:19.316Z,51.71
2022-10-08T20:21:47.943Z,51.98
2022-10-08T20:24:17.307Z,51.96
2022-10-08T20:26:45.656Z,52.08
2022-10-08T20:29:17.690Z,51.96
2022-10-08T20:31:54.252Z,51.84
2022-10-08T20:34:25.129Z,52.22
2022-10-08T20:36:53.365Z,52.00
2022-10-08T20:39:22.358Z,52.13
2022-10-08T20:41:50.327Z,52.44
2022-10-08T20:44:17.629Z,52.62
2022-10-08T20:46:45.294Z,52.40
2022-10-08T20:49:13.610Z,52.45
2022-10-08T20:51:43.354Z,52.41
2022-10-08T20:54:15.178Z,52.67
2022-10-08T20:56:43.016Z,52.50
2022-10-08T20:59:18.023Z,52.59
2022-10-08T21:01:46.749Z,52.64
2022-10-08T21:04:14.338Z,52.79
2022-10-08T21:06:49.687Z,52.95
2022-10-08T21:09:20.547Z,52.94
2022-10-08T21:11:48.468Z,53.34
2022-10-08T21:14:19.574Z,53.41
2022-10-08T21:16:46.819Z,53.29
2022-10-08T21:19:19.751Z,53.14
2022-10-08T21:21:47.572Z,53.22
2022-10-08T21:24:15.939Z,53.41
2022-10-08T21:26:43.567Z,53.45
2022-10-08T21:29:14.069Z,53.29
2022-10-08T21:31:42.456Z,53.74
2022-10-08T21:34:12.676Z,53.78
2022-10-08T21:36:42.047Z,54.02
2022-10-08T21:39:15.410Z,53.82
2022-10-08T21:41:42.820Z,53.95
2022-10-08T21:44:10.194Z,53.95
2022-10-08T21:46:42.100Z,54.15
2022-10-08T21:49:17.845Z,54.41
2022-10-08T21:51:45.276Z,54.47
2022-10-08T21:54:13.230Z,54.38
2022-10-08T21:56:42.582Z,54.55
2022-10-08T21:59:14.353Z,54.59
2022-10-08T22:01:50.866Z,54.64
2022-10-08T22:04:21.750Z,54.67
2022-10-08T22:06:55.686Z,54.82
2022-10-08T22:09:27.280Z,54.69
2022-10-08T22:11:57.232Z,54.84
2022-10-08T22:14:25.557Z,54.73
2022-10-08T22:16:52.916Z,54.88
2022-10-08T22:19:20.778Z,54.89
2022-10-08T22:21:47.972Z,55.10
2022-10-08T22:24:15.426Z,55.33
2022-10-08T22:26:46.834Z,55.29
2022-10-08T22:29:15.462Z,55.36
2022-10-08T22:31:42.694Z,55.28
2022-10-08T22:34:10.406Z,55.31
2022-10-08T22:36:43.752Z,55.61
2022-10-08T22:39:12.682Z,55.89
2022-10-08T22:41:39.930Z,55.91
2022-10-08T22:44:07.289Z,55.93
2022-10-08T22:46:39.589Z,55.95
2022-10-08T22:49:10.985Z,55.69
2022-10-08T22:51:39.666Z,55.82
2022-10-08T22:54:08.818Z,55.79
2022-10-08T22:56:36.313Z,55.63
2022-10-08T22:59:03.712Z,55.80
2022-10-08T23:01:31.582Z,55.85
2022-10-08T23:03:59.173Z,55.86
2022-10-08T23:06:32.556Z,56.09
2022-10-08T23:09:11.435Z,56.31
2022-10-08T23:11:39.333Z,56.46
2022-10-08T23:14:07.071Z,56.38
2022-10-08T23:16:35.039Z,56.48
2022-10-08T23:19:06.609Z,56.88
2022-10-08T23:21:35.442Z,56.81
2022-10-08T23:24:02.980Z,56.96
2022-10-08T23:26:30.600Z,56.84
2022-10-08T23:29:00.606Z,56.90
2022-10-08T23:31:35.647Z,56.91
2022-10-08T23:34:04.250Z,56.94
2022-10-08T23:36:36.277Z,57.14
2022-10-08T23:39:05.508Z,57.28
2022-10-08T23:41:33.088Z,57.51
2022-10-08T23:44:00.342Z,57.60
2022-10-08T23:46:30.434Z,57.56
2022-10-08T23:48:59.567Z,57.39
2022-10-08T23:51:29.125Z,57.67
2022-10-08T23:53:56.311Z,57.71
2022-10-08T23:56:23.931Z,57.95
2022-10-08T23:58:51.442Z,58.05
